Terminal Aerodrome Forecast
Issued by NWS

Home | Current Version | Previous Version | Text Only | Print | Product List | Glossary Off
Versions: 1 2 3 4 5 6 7 8 9 10 11 12 13 14 15 16 17

628
FTUS43 KICT 011418 AAC
TAFHUT
TAF AMD
KHUT 011418Z 0114/0212 31013G20KT P6SM OVC013
     FM011600 34015G23KT P6SM BKN025 OVC150
     FM011900 34013G22KT P6SM SCT035 OVC150
     FM020000 36011KT P6SM OVC035
     FM020700 36007KT P6SM VCSH SCT015 OVC025=

USA.gov is the U.S. government's official web portal to all federal, state and local government web resources and services.